METAR AND TAF INFORMATION
METAR FOR EPPO
ADDS - METARS form results

(1802 UTC 15 December 2018)
Data provider http://aviationweather.gov/metar/data/
 
METAR text: EPPO 151800Z 07007KT 9999 FEW048 M01/M03 Q1027 R10/29//95
Conditions at: EPPO (POZNAN/LAWICA , PL) observed 1800 UTC 15 December 2018
Temperature: -1.0°C (30°F)
Dewpoint: -3.0°C (27°F) [RH = 86%]
Pressure (altimeter): 30.32 inches Hg (1027.0 mb)
Winds: from the ENE (70 degrees) at 8 MPH (7 knots; 3.6 m/s)
Visibility: 6 or more miles (10+ km)
Ceiling: at least 12,000 feet AGL
Clouds: few clouds at 4800 feet AGL
Weather: no significant weather observed at this time

METAR text: EPPO 151730Z 05007KT CAVOK M01/M02 Q1027 R10/29//95
Conditions at: EPPO (POZNAN/LAWICA , PL) observed 1730 UTC 15 December 2018
Temperature: -1.0°C (30°F)
Dewpoint: -2.0°C (28°F) [RH = 93%]
Pressure (altimeter): 30.32 inches Hg (1027.0 mb)
Winds: from the NE (50 degrees) at 8 MPH (7 knots; 3.6 m/s)
Visibility: 6 or more miles (10+ km)
Ceiling: ceiling and visibility are OK
Clouds: unknown
Weather: no significant weather observed at this time

Forecast for: EPPO (POZNAN/LAWICA , PL)
Text: TAF EPPO 151730Z 1518/1618 07006KT 8000 BKN028
Forecast period: 1800 UTC 15 December 2018 to 1800 UTC 16 December 2018
Forecast type: FROM: standard forecast or significant change
Winds: from the ENE (70 degrees) at 7 MPH (6 knots; 3.1 m/s)
Visibility: 5 miles (8 km)
Ceiling: 2800 feet AGL
Clouds: broken clouds at 2800 feet AGL
Weather: no significant weather forecast for this period
Text: TEMPO 1518/1614 4000 -SN BR BKN007 OVC015
Forecast period: 1800 UTC 15 December 2018 to 1400 UTC 16 December 2018
Forecast type: TEMPORARY: The following changes expected for less than half the time period
Visibility: 2.49 miles (4.01 km)
Ceiling: 700 feet AGL
Clouds: broken clouds at 700 feet AGL
overcast cloud deck at 1500 feet AGL
Weather: -SN BR  (light snow, mist)
Text: PROB40
Forecast period: 1800 UTC 15 December 2018 to 0400 UTC 16 December 2018
Forecast type: TEMPORARY: The following changes expected for less than half the time period
Visibility: 1.74 miles (2.80 km)
Ceiling: 400 feet AGL
Clouds: broken clouds at 400 feet AGL
overcast cloud deck at 1500 feet AGL
Weather: -SN BR  (light snow, mist)

 AIRPORT MAP

 RUNWAY INFORMATION

 AIRPORT FREQUENCIES
Type APP Name POZNAN APP Frequency 135.525 MHZ
Type ATIS Name POZNAN ATI Frequency 124.7 MHZ
Type TWR Name POZNAN TWR Frequency 119.975 MHZ

 AIRPORT NEAR NAVIGATION AIDS
Type NDB Name Poznan Frequency 429 KHZ



Powered by Virtual Airlines Manager [v2.6.2]